Time;durP1;ratioP1;P1;durP2;ratioP2;P2;SDS_P1;SDS_P2;PMS_P1;PMS_P2;Temp;Humidity;BMP_temperature;BMP_pressure;BME280_temperature;BME280_humidity;BME280_pressure;Samples;Min_cycle;Max_cycle;Signal;HPM_P1;HPM_P2
2023/05/04 00:01:53;;;;;;;1.60;1.50;;;23.40;52.50;;;;;;4820669;29;20078;-70
2023/05/04 00:04:19;;;;;;;1.50;1.40;;;23.40;51.50;;;;;;4822470;29;20046;-71
2023/05/04 00:06:46;;;;;;;3.30;1.40;;;23.30;52.80;;;;;;4822153;29;20079;-70
2023/05/04 00:09:14;;;;;;;1.65;1.40;;;23.40;53.00;;;;;;4820685;29;20038;-70
2023/05/04 00:11:40;;;;;;;2.28;1.60;;;23.40;52.90;;;;;;4821852;29;20038;-70
2023/05/04 00:14:07;;;;;;;2.70;1.50;;;23.40;53.00;;;;;;4820413;29;20035;-71
2023/05/04 00:16:34;;;;;;;2.55;1.55;;;23.20;53.10;;;;;;4821223;29;20039;-70
2023/05/04 00:19:00;;;;;;;1.80;1.50;;;23.20;53.20;;;;;;4835595;29;20113;-71
2023/05/04 00:21:26;;;;;;;2.78;1.48;;;23.20;53.30;;;;;;4820094;29;20046;-71
2023/05/04 00:23:52;;;;;;;1.40;1.27;;;23.30;53.30;;;;;;4821823;29;20479;-71
2023/05/04 00:26:18;;;;;;;1.92;1.52;;;23.30;53.30;;;;;;4822258;29;20104;-70
2023/05/04 00:28:45;;;;;;;2.78;1.88;;;23.30;53.30;;;;;;4819106;29;20034;-71
2023/05/04 00:31:11;;;;;;;2.15;1.45;;;23.20;53.10;;;;;;4821438;29;20088;-71
2023/05/04 00:33:37;;;;;;;1.63;1.50;;;23.30;53.20;;;;;;4822476;29;20479;-70
2023/05/04 00:36:03;;;;;;;1.63;1.30;;;23.20;53.20;;;;;;4805003;29;20091;-71
2023/05/04 00:38:29;;;;;;;3.63;1.40;;;23.30;53.30;;;;;;4820360;29;20410;-71
2023/05/04 00:40:57;;;;;;;2.15;1.48;;;23.40;53.30;;;;;;4819772;29;20078;-70
2023/05/04 00:43:25;;;;;;;3.15;1.63;;;23.50;53.20;;;;;;4820195;29;20042;-70
2023/05/04 00:45:51;;;;;;;1.60;1.50;;;23.30;53.20;;;;;;4820155;29;20058;-70
2023/05/04 00:48:17;;;;;;;2.63;1.70;;;23.20;53.10;;;;;;4821041;29;20367;-70
2023/05/04 00:50:43;;;;;;;1.70;1.55;;;23.30;53.20;;;;;;4820448;29;20049;-70
2023/05/04 00:53:10;;;;;;;2.78;1.85;;;23.20;53.10;;;;;;4822208;29;20042;-70
2023/05/04 00:55:39;;;;;;;2.42;1.70;;;23.30;53.20;;;;;;4837906;29;20065;-71
2023/05/04 00:58:06;;;;;;;1.60;1.50;;;23.20;53.20;;;;;;4837368;29;20081;-70
2023/05/04 01:00:32;;;;;;;1.30;1.05;;;23.30;53.40;;;;;;4837024;29;20182;-70
2023/05/04 01:02:59;;;;;;;2.92;1.60;;;23.20;53.40;;;;;;4840133;29;20054;-70
2023/05/04 01:05:28;;;;;;;1.40;1.30;;;23.10;53.40;;;;;;4825196;29;20058;-70
2023/05/04 01:08:06;;;;;;;1.83;1.30;;;23.30;53.40;;;;;;4825291;29;20042;-70
2023/05/04 01:10:38;;;;;;;1.73;1.45;;;23.10;53.30;;;;;;4825155;29;20046;-71
2023/05/04 01:13:15;;;;;;;1.50;1.40;;;23.10;53.40;;;;;;4840892;29;20037;-71
2023/05/04 01:15:42;;;;;;;1.88;1.73;;;23.00;53.40;;;;;;4823562;29;20475;-70
2023/05/04 01:18:08;;;;;;;2.35;1.90;;;23.00;53.40;;;;;;4824660;29;20052;-70
2023/05/04 01:20:34;;;;;;;1.88;1.60;;;23.20;53.60;;;;;;4840089;29;20419;-71
2023/05/04 01:23:02;;;;;;;2.90;1.60;;;23.10;53.50;;;;;;4840840;29;20042;-71
2023/05/04 01:25:38;;;;;;;4.70;2.00;;;23.20;53.30;;;;;;4839730;29;20259;-72
2023/05/04 01:28:11;;;;;;;1.60;1.50;;;23.10;53.30;;;;;;4824582;29;20027;-71
2023/05/04 01:30:43;;;;;;;2.15;1.58;;;23.20;53.10;;;;;;4837439;29;20034;-71
2023/05/04 01:33:11;;;;;;;1.65;1.55;;;23.20;53.10;;;;;;4825119;29;20460;-71
2023/05/04 01:35:37;;;;;;;2.58;1.70;;;23.30;53.20;;;;;;4823533;29;20066;-71
2023/05/04 01:38:03;;;;;;;1.63;1.33;;;23.20;53.30;;;;;;4824269;29;20045;-71
2023/05/04 01:40:29;;;;;;;3.28;1.67;;;23.20;53.30;;;;;;4822874;29;20084;-70
2023/05/04 01:42:55;;;;;;;4.07;2.10;;;23.00;53.20;;;;;;4822738;29;20030;-70
2023/05/04 01:45:22;;;;;;;4.10;1.80;;;23.10;53.40;;;;;;4821722;29;20077;-70
2023/05/04 01:47:48;;;;;;;3.22;1.48;;;23.10;53.40;;;;;;4819842;29;20091;-71
2023/05/04 01:50:14;;;;;;;2.35;2.03;;;23.20;53.50;;;;;;4822474;29;20037;-70
2023/05/04 01:52:40;;;;;;;3.20;1.80;;;23.10;53.60;;;;;;4838660;29;20043;-70
2023/05/04 01:55:06;;;;;;;3.05;1.50;;;23.00;53.50;;;;;;4824406;29;20038;-71
2023/05/04 01:57:33;;;;;;;2.38;2.05;;;23.00;53.60;;;;;;4823251;29;20030;-70
2023/05/04 01:59:58;;;;;;;2.80;1.50;;;22.90;53.70;;;;;;4835883;29;20567;-71
2023/05/04 02:02:24;;;;;;;5.55;1.65;;;22.90;53.60;;;;;;4824697;29;20058;-71
2023/05/04 02:04:51;;;;;;;2.97;1.50;;;22.90;53.60;;;;;;4821923;29;20048;-70
2023/05/04 02:07:17;;;;;;;1.65;1.50;;;22.90;53.60;;;;;;4823381;29;20111;-70
2023/05/04 02:09:43;;;;;;;3.30;1.77;;;22.90;53.70;;;;;;4822856;29;20038;-70
2023/05/04 02:12:09;;;;;;;2.88;1.65;;;22.90;53.90;;;;;;4821094;29;20117;-70
2023/05/04 02:14:35;;;;;;;3.72;1.55;;;22.90;53.90;;;;;;4821929;29;20410;-70
2023/05/04 02:17:03;;;;;;;3.65;2.33;;;22.90;53.90;;;;;;4837251;29;20800;-71
2023/05/04 02:19:29;;;;;;;2.30;1.88;;;23.00;53.90;;;;;;4821987;29;20488;-70
2023/05/04 02:21:55;;;;;;;3.58;2.20;;;22.80;53.70;;;;;;4823546;29;20087;-70
2023/05/04 02:24:21;;;;;;;2.22;1.92;;;22.90;53.90;;;;;;4836529;29;20705;-70
2023/05/04 02:26:47;;;;;;;2.38;1.95;;;22.90;53.90;;;;;;4822905;29;20042;-70
2023/05/04 02:29:13;;;;;;;2.08;1.75;;;22.90;53.90;;;;;;4834928;29;20033;-71
2023/05/04 02:31:39;;;;;;;4.45;2.03;;;22.90;53.70;;;;;;4840115;29;20026;-71
2023/05/04 02:34:06;;;;;;;3.05;2.00;;;23.00;53.80;;;;;;4825901;29;20055;-70
2023/05/04 02:36:32;;;;;;;4.57;2.05;;;23.00;53.60;;;;;;4837616;29;20613;-70
2023/05/04 02:38:59;;;;;;;4.57;2.42;;;23.00;53.70;;;;;;4822508;29;20071;-70
2023/05/04 02:41:25;;;;;;;4.00;2.10;;;23.00;53.70;;;;;;4821376;29;20059;-70
2023/05/04 02:43:52;;;;;;;2.38;2.17;;;22.90;53.70;;;;;;4835377;29;20022;-70
2023/05/04 02:46:20;;;;;;;5.30;2.10;;;22.90;53.70;;;;;;4821966;29;20046;-71
2023/05/04 02:48:46;;;;;;;6.47;2.45;;;22.90;53.60;;;;;;4818979;29;20116;-70
2023/05/04 02:51:12;;;;;;;5.97;2.08;;;22.90;53.70;;;;;;4791175;29;20046;-70
2023/05/04 02:53:38;;;;;;;2.50;1.88;;;23.00;53.60;;;;;;4819706;29;20173;-70
2023/05/04 02:56:05;;;;;;;3.50;2.30;;;22.90;53.60;;;;;;4820715;29;20063;-70
2023/05/04 02:58:31;;;;;;;5.22;3.10;;;22.90;53.50;;;;;;4820254;29;20054;-71
2023/05/04 03:00:57;;;;;;;4.43;2.42;;;22.80;53.40;;;;;;4803382;29;20579;-71
2023/05/04 03:03:23;;;;;;;3.50;2.17;;;22.90;53.70;;;;;;4818724;29;20420;-70
2023/05/04 03:05:49;;;;;;;4.03;2.08;;;22.80;53.60;;;;;;4803710;29;20053;-70
2023/05/04 03:08:15;;;;;;;3.28;2.35;;;22.70;53.70;;;;;;4804677;29;20468;-70
2023/05/04 03:10:41;;;;;;;4.60;2.28;;;22.70;53.80;;;;;;4805558;29;20516;-70
2023/05/04 03:13:08;;;;;;;3.00;2.35;;;22.80;53.70;;;;;;4819599;29;20035;-70
2023/05/04 03:15:35;;;;;;;5.78;2.30;;;22.70;53.70;;;;;;4804067;29;20074;-70
2023/05/04 03:18:01;;;;;;;3.05;1.90;;;22.90;53.80;;;;;;4804952;29;20038;-71
2023/05/04 03:20:28;;;;;;;3.67;1.83;;;22.90;53.60;;;;;;4818611;29;20069;-70
2023/05/04 03:22:54;;;;;;;2.35;1.92;;;22.90;53.60;;;;;;4821960;29;20038;-70
2023/05/04 03:25:20;;;;;;;2.80;2.15;;;22.90;53.50;;;;;;4826838;29;20050;-71
2023/05/04 03:27:46;;;;;;;2.40;1.88;;;22.90;53.20;;;;;;4820782;29;20035;-71
2023/05/04 03:30:13;;;;;;;5.43;2.20;;;23.20;53.20;;;;;;4821001;29;20126;-70
2023/05/04 03:32:40;;;;;;;5.28;1.80;;;23.00;53.00;;;;;;4822736;29;20522;-70
2023/05/04 03:35:06;;;;;;;5.82;2.28;;;23.10;53.00;;;;;;4836746;29;20181;-70
2023/05/04 03:37:33;;;;;;;3.00;1.85;;;23.10;52.90;;;;;;4819741;29;20129;-70
2023/05/04 03:39:59;;;;;;;3.55;2.78;;;23.00;52.90;;;;;;4822592;29;20391;-71
2023/05/04 03:42:26;;;;;;;4.82;2.47;;;23.00;53.00;;;;;;4822016;29;20462;-70
2023/05/04 03:44:52;;;;;;;4.72;2.25;;;23.00;53.00;;;;;;4822268;29;20193;-70
2023/05/04 03:47:18;;;;;;;4.43;2.70;;;22.90;53.10;;;;;;4822158;29;20042;-71
2023/05/04 03:49:46;;;;;;;5.05;2.53;;;22.90;53.20;;;;;;4806438;29;20066;-70
2023/05/04 03:52:12;;;;;;;5.53;3.35;;;22.90;53.50;;;;;;4822546;29;20029;-71
2023/05/04 03:54:38;;;;;;;5.70;3.17;;;22.80;53.50;;;;;;4819968;29;20465;-70
2023/05/04 03:57:04;;;;;;;4.65;3.40;;;22.80;53.60;;;;;;4822228;29;20542;-70
2023/05/04 03:59:32;;;;;;;4.63;2.95;;;22.60;53.50;;;;;;4824585;29;20162;-70
2023/05/04 04:02:02;;;;;;;4.28;3.10;;;22.60;53.60;;;;;;4817635;29;20111;-70
2023/05/04 04:04:29;;;;;;;6.78;3.35;;;22.80;53.70;;;;;;4821350;29;20046;-70
2023/05/04 04:06:56;;;;;;;4.25;2.70;;;22.80;53.90;;;;;;4822579;29;20054;-70
2023/05/04 04:09:23;;;;;;;6.53;2.90;;;22.60;53.80;;;;;;4820551;29;20038;-70
2023/05/04 04:11:50;;;;;;;8.50;3.47;;;22.60;53.70;;;;;;4835418;29;20383;-70
2023/05/04 04:14:16;;;;;;;3.60;2.53;;;22.70;53.80;;;;;;4818500;29;20045;-70
2023/05/04 04:16:42;;;;;;;2.95;2.30;;;22.80;53.60;;;;;;4821038;29;20037;-70
2023/05/04 04:19:08;;;;;;;6.82;2.90;;;22.80;53.40;;;;;;4821275;29;20030;-70
2023/05/04 04:21:34;;;;;;;10.38;3.28;;;22.90;53.40;;;;;;4822823;29;20414;-71
2023/05/04 04:24:00;;;;;;;5.05;3.70;;;22.90;53.30;;;;;;4835846;29;20407;-72
2023/05/04 04:26:27;;;;;;;4.95;2.92;;;22.90;53.40;;;;;;4820734;29;20043;-70
2023/05/04 04:28:53;;;;;;;6.35;3.20;;;23.00;53.30;;;;;;4820776;29;20050;-71
2023/05/04 04:31:19;;;;;;;6.20;2.80;;;22.90;53.20;;;;;;4821460;29;20073;-71
2023/05/04 04:33:47;;;;;;;4.60;2.60;;;23.00;53.10;;;;;;4822027;29;20737;-70
2023/05/04 04:36:15;;;;;;;6.38;3.15;;;23.00;52.80;;;;;;4760919;30;20048;-70
2023/05/04 04:38:42;;;;;;;5.13;2.97;;;22.90;53.00;;;;;;4750704;30;20139;-69
2023/05/04 04:41:08;;;;;;;4.05;2.75;;;23.00;52.70;;;;;;4750549;30;20048;-71
2023/05/04 04:43:34;;;;;;;3.75;2.20;;;22.90;49.80;;;;;;4737679;30;20096;-69
2023/05/04 04:46:01;;;;;;;8.32;3.17;;;23.00;48.70;;;;;;4748446;30;20052;-69
2023/05/04 04:48:27;;;;;;;3.95;2.95;;;23.00;47.40;;;;;;4750065;30;20640;-68
2023/05/04 04:50:53;;;;;;;2.90;2.67;;;23.00;48.80;;;;;;4751456;30;20442;-69
2023/05/04 04:53:19;;;;;;;3.22;2.92;;;23.10;49.40;;;;;;4751249;30;20123;-69
2023/05/04 04:55:45;;;;;;;6.72;3.05;;;23.10;49.00;;;;;;4749126;30;20105;-68
2023/05/04 04:58:11;;;;;;;3.70;2.90;;;23.30;52.80;;;;;;4749704;30;20420;-69
2023/05/04 05:00:38;;;;;;;8.63;3.58;;;23.40;51.60;;;;;;4746609;30;20052;-69
2023/05/04 05:03:04;;;;;;;4.50;3.53;;;23.40;49.80;;;;;;4751239;30;20517;-69
2023/05/04 05:05:30;;;;;;;6.32;3.20;;;23.40;49.40;;;;;;4750918;30;20047;-69
2023/05/04 05:07:56;;;;;;;6.18;2.35;;;23.40;49.10;;;;;;4778228;29;20465;-70
2023/05/04 05:10:22;;;;;;;3.75;2.75;;;23.40;55.50;;;;;;4783726;29;20070;-70
2023/05/04 05:12:52;;;;;;;3.40;2.72;;;23.50;55.90;;;;;;4789229;29;20467;-68
2023/05/04 05:15:18;;;;;;;5.95;3.17;;;23.40;56.70;;;;;;4822299;29;20456;-68
2023/05/04 05:17:44;;;;;;;3.60;2.92;;;23.50;52.10;;;;;;4807502;29;20042;-69
2023/05/04 05:20:10;;;;;;;3.60;2.55;;;23.50;54.80;;;;;;4824331;29;20129;-68
2023/05/04 05:22:40;;;;;;;4.18;2.58;;;23.40;51.60;;;;;;4824109;29;20046;-70
2023/05/04 05:25:06;;;;;;;5.03;3.00;;;23.50;54.60;;;;;;4822866;29;20069;-69
2023/05/04 05:27:36;;;;;;;2.92;2.65;;;23.60;54.10;;;;;;4823485;29;20087;-70
2023/05/04 05:30:04;;;;;;;7.55;2.75;;;23.50;55.30;;;;;;4822326;29;20117;-69
2023/05/04 05:32:31;;;;;;;8.13;2.45;;;23.40;55.80;;;;;;4824335;29;20023;-69
2023/05/04 05:34:57;;;;;;;2.90;2.38;;;23.50;53.80;;;;;;4824162;29;20042;-71
2023/05/04 05:37:24;;;;;;;4.47;2.92;;;23.40;52.10;;;;;;4822740;29;20049;-71
2023/05/04 05:39:50;;;;;;;3.47;2.60;;;23.50;48.20;;;;;;4837336;29;20456;-69
2023/05/04 05:42:16;;;;;;;4.43;2.47;;;23.40;49.00;;;;;;4821473;29;20041;-69
2023/05/04 05:44:42;;;;;;;2.58;1.95;;;23.40;50.40;;;;;;4822491;29;20103;-69
2023/05/04 05:47:08;;;;;;;3.15;2.45;;;23.40;55.30;;;;;;4822489;29;20401;-68
2023/05/04 05:49:34;;;;;;;3.28;2.85;;;23.50;58.60;;;;;;4823108;29;20069;-68
2023/05/04 05:52:00;;;;;;;3.50;2.22;;;23.50;59.10;;;;;;4824428;29;20039;-68
2023/05/04 05:54:28;;;;;;;2.80;2.30;;;23.50;59.50;;;;;;4822959;29;20117;-68
2023/05/04 05:56:54;;;;;;;2.90;2.00;;;23.50;55.10;;;;;;4833242;29;20487;-68
2023/05/04 05:59:20;;;;;;;3.38;2.70;;;23.50;52.50;;;;;;4822813;29;20034;-69
2023/05/04 06:01:46;;;;;;;2.50;2.30;;;23.60;55.70;;;;;;4823474;29;20765;-69
2023/05/04 06:04:12;;;;;;;3.95;2.65;;;23.60;53.40;;;;;;4830986;29;20117;-68
2023/05/04 06:06:38;;;;;;;4.25;2.22;;;23.50;53.10;;;;;;4835097;29;20117;-68
2023/05/04 06:09:04;;;;;;;1.38;1.27;;;23.70;55.60;;;;;;4840154;29;20034;-68
2023/05/04 06:11:31;;;;;;;7.45;2.05;;;23.60;57.30;;;;;;4832129;29;20380;-69
2023/05/04 06:13:57;;;;;;;2.30;1.65;;;23.60;56.20;;;;;;4840333;29;20042;-68
2023/05/04 06:16:23;;;;;;;3.65;2.47;;;23.60;54.80;;;;;;4823752;29;20043;-68
2023/05/04 06:18:50;;;;;;;3.47;2.30;;;23.50;54.50;;;;;;4823626;29;20053;-67
2023/05/04 06:21:16;;;;;;;2.40;2.20;;;23.60;54.80;;;;;;4822742;29;20050;-68
2023/05/04 06:23:43;;;;;;;2.72;1.80;;;23.60;54.00;;;;;;4823610;29;20499;-68
2023/05/04 06:26:09;;;;;;;2.95;2.25;;;23.80;51.60;;;;;;4822706;29;20038;-68
2023/05/04 06:28:35;;;;;;;0.95;0.95;;;23.70;53.70;;;;;;4840789;29;20045;-67
2023/05/04 06:31:02;;;;;;;3.30;2.55;;;23.80;53.40;;;;;;4824287;29;20503;-67
2023/05/04 06:33:28;;;;;;;1.95;1.85;;;23.70;53.20;;;;;;4823541;29;20599;-69
2023/05/04 06:35:54;;;;;;;4.07;1.85;;;23.70;52.50;;;;;;4822221;29;20480;-67
2023/05/04 06:38:20;;;;;;;2.67;2.20;;;23.80;52.30;;;;;;4823452;29;20063;-68
2023/05/04 06:40:47;;;;;;;1.40;1.17;;;23.70;52.00;;;;;;4823631;29;20045;-69
2023/05/04 06:43:13;;;;;;;2.30;1.52;;;23.80;51.60;;;;;;4823623;29;20049;-69
2023/05/04 06:45:39;;;;;;;1.45;1.08;;;23.80;51.30;;;;;;4822679;29;20175;-68
2023/05/04 06:48:06;;;;;;;2.90;1.92;;;23.70;50.90;;;;;;4823390;29;20113;-69
2023/05/04 06:50:32;;;;;;;3.80;2.25;;;23.90;50.60;;;;;;4823587;29;20054;-67
2023/05/04 06:53:03;;;;;;;2.58;1.85;;;23.80;50.20;;;;;;4823637;29;20170;-69
2023/05/04 06:55:29;;;;;;;0.43;0.43;;;23.90;50.00;;;;;;4823439;29;20049;-68
2023/05/04 06:57:55;;;;;;;1.60;1.20;;;23.90;49.80;;;;;;4823242;29;20063;-68
2023/05/04 07:00:21;;;;;;;2.30;2.08;;;23.90;49.50;;;;;;4821492;29;20092;-69
2023/05/04 07:02:47;;;;;;;2.63;2.13;;;24.00;49.20;;;;;;4823288;29;20154;-69
2023/05/04 07:05:13;;;;;;;4.22;2.08;;;24.00;49.00;;;;;;4823067;29;20513;-68
2023/05/04 07:07:40;;;;;;;4.15;2.45;;;24.00;48.80;;;;;;4822775;29;20454;-67
2023/05/04 07:10:07;;;;;;;1.50;0.85;;;24.00;48.40;;;;;;4823191;29;20038;-68
2023/05/04 07:12:33;;;;;;;3.88;2.58;;;24.00;48.40;;;;;;4821740;29;20095;-69
2023/05/04 07:14:59;;;;;;;1.60;1.50;;;24.10;48.20;;;;;;4822194;29;20042;-68
2023/05/04 07:17:25;;;;;;;2.50;2.05;;;24.10;47.70;;;;;;4803382;29;20118;-68
2023/05/04 07:20:01;;;;;;;3.15;2.22;;;24.00;46.70;;;;;;5108612;27;20969;-67
2023/05/04 07:22:27;;;;;;;2.85;1.98;;;23.90;47.50;;;;;;5108490;28;20131;-68
2023/05/04 07:24:53;;;;;;;3.70;2.10;;;24.00;47.40;;;;;;5108976;28;20066;-69
2023/05/04 07:27:19;;;;;;;7.10;2.30;;;23.90;47.30;;;;;;5108855;28;20039;-67
2023/05/04 07:29:46;;;;;;;5.68;2.40;;;24.10;47.40;;;;;;5106529;28;20023;-67
2023/05/04 07:32:12;;;;;;;2.47;1.95;;;24.10;47.20;;;;;;5105234;28;20102;-67
2023/05/04 07:34:37;;;;;;;4.55;2.35;;;24.00;47.00;;;;;;5102997;28;20043;-66
2023/05/04 07:37:04;;;;;;;6.70;2.70;;;24.00;47.00;;;;;;5105848;28;20803;-68
2023/05/04 07:39:30;;;;;;;5.88;3.20;;;24.00;46.90;;;;;;5104940;28;20039;-68
2023/05/04 07:41:56;;;;;;;2.90;2.58;;;24.00;47.90;;;;;;5108209;28;20133;-66
2023/05/04 07:44:22;;;;;;;8.60;2.95;;;24.00;49.40;;;;;;5111614;28;20111;-66
2023/05/04 07:46:48;;;;;;;7.97;2.60;;;24.00;47.20;;;;;;5101921;28;20131;-67
2023/05/04 07:49:14;;;;;;;6.80;3.25;;;24.20;46.70;;;;;;5103980;28;20556;-67
2023/05/04 07:51:40;;;;;;;5.40;3.17;;;24.30;46.70;;;;;;5088171;28;20040;-69
2023/05/04 07:54:06;;;;;;;5.63;2.50;;;24.30;46.10;;;;;;5088525;28;20031;-69
2023/05/04 07:56:33;;;;;;;3.42;2.67;;;24.40;44.00;;;;;;5115767;28;20041;-67
2023/05/04 07:58:59;;;;;;;7.38;3.85;;;24.40;48.10;;;;;;5101738;28;20089;-67
2023/05/04 08:01:25;;;;;;;5.75;3.22;;;24.40;48.00;;;;;;5103629;28;20395;-67
2023/05/04 08:03:51;;;;;;;3.38;2.53;;;24.40;48.00;;;;;;5107406;28;20526;-68
2023/05/04 08:06:17;;;;;;;4.43;2.72;;;24.30;49.40;;;;;;5111329;27;20400;-71
2023/05/04 08:08:44;;;;;;;6.55;3.15;;;24.30;49.90;;;;;;5104741;28;20036;-69
2023/05/04 08:11:12;;;;;;;3.30;2.40;;;24.20;50.10;;;;;;5087948;28;20465;-69
2023/05/04 08:13:39;;;;;;;3.13;2.28;;;24.30;50.20;;;;;;5104004;28;20118;-69
2023/05/04 08:16:05;;;;;;;5.32;2.70;;;24.30;50.30;;;;;;5105134;28;20146;-69
2023/05/04 08:18:31;;;;;;;7.63;3.25;;;24.30;50.30;;;;;;5104727;28;20087;-69
2023/05/04 08:20:57;;;;;;;6.07;2.70;;;24.40;50.40;;;;;;5104822;28;20059;-69
2023/05/04 08:23:23;;;;;;;4.25;2.67;;;24.30;50.50;;;;;;5104818;28;20646;-69
2023/05/04 08:25:51;;;;;;;3.75;2.60;;;24.30;50.60;;;;;;5103281;28;20040;-69
2023/05/04 08:28:17;;;;;;;3.75;2.20;;;24.30;50.60;;;;;;5085285;28;20122;-69
2023/05/04 08:30:43;;;;;;;4.55;3.00;;;24.30;50.70;;;;;;5092470;28;20047;-69
2023/05/04 08:33:09;;;;;;;3.10;2.33;;;24.30;50.60;;;;;;5091969;28;20024;-69
2023/05/04 08:35:36;;;;;;;4.85;2.35;;;24.40;49.80;;;;;;5102839;28;20038;-68
2023/05/04 08:38:03;;;;;;;3.33;2.70;;;24.40;48.70;;;;;;5056974;28;20879;-69
2023/05/04 08:40:29;;;;;;;5.55;2.25;;;24.40;48.00;;;;;;5098890;28;20046;-69
2023/05/04 08:42:56;;;;;;;3.97;2.80;;;24.40;47.50;;;;;;5093612;28;20055;-69
2023/05/04 08:45:22;;;;;;;2.60;1.85;;;24.30;47.30;;;;;;5104734;28;20027;-68
2023/05/04 08:47:48;;;;;;;3.78;2.95;;;24.30;46.70;;;;;;5113796;28;20036;-69
2023/05/04 08:50:14;;;;;;;5.22;2.38;;;24.30;47.10;;;;;;5093553;28;20020;-68
2023/05/04 08:52:47;;;;;;;6.65;3.35;;;24.20;47.00;;;;;;5102770;28;20081;-69
2023/05/04 08:55:15;;;;;;;5.85;2.17;;;24.30;47.10;;;;;;5111889;28;20115;-68
2023/05/04 08:57:43;;;;;;;4.50;2.42;;;24.20;47.00;;;;;;5092791;28;20032;-71
2023/05/04 09:00:12;;;;;;;3.35;2.45;;;24.10;47.20;;;;;;5092280;28;20419;-69
2023/05/04 09:02:38;;;;;;;9.55;2.53;;;24.20;47.40;;;;;;5068995;28;20118;-68
2023/05/04 09:05:07;;;;;;;5.38;2.10;;;24.10;48.00;;;;;;5108524;28;20024;-67
2023/05/04 09:07:33;;;;;;;4.05;2.38;;;24.00;46.90;;;;;;5113336;28;20782;-67
2023/05/04 09:09:59;;;;;;;2.60;2.28;;;24.10;45.70;;;;;;5114142;27;20045;-67
2023/05/04 09:12:26;;;;;;;4.75;2.42;;;24.30;46.20;;;;;;5111145;27;20433;-67
2023/05/04 09:14:52;;;;;;;4.95;2.50;;;24.10;45.60;;;;;;5117123;27;20071;-67
2023/05/04 09:17:28;;;;;;;3.67;2.15;;;24.30;46.10;;;;;;5131103;27;20487;-67
2023/05/04 09:20:01;;;;;;;2.90;2.35;;;24.20;46.30;;;;;;5120262;27;20051;-67
2023/05/04 09:22:28;;;;;;;4.57;1.85;;;24.30;48.40;;;;;;5110931;28;20154;-67
2023/05/04 09:25:08;;;;;;;2.00;1.70;;;24.20;44.50;;;;;;5109981;28;20108;-68
2023/05/04 09:27:34;;;;;;;4.90;2.00;;;24.20;44.60;;;;;;5075212;28;20390;-68
2023/05/04 09:30:00;;;;;;;5.55;2.05;;;24.10;44.60;;;;;;5109475;27;20035;-68
2023/05/04 09:32:27;;;;;;;5.35;2.53;;;24.20;45.30;;;;;;5069647;28;20485;-68
2023/05/04 09:34:53;;;;;;;3.35;2.40;;;24.10;44.40;;;;;;5068856;28;20132;-68
2023/05/04 09:37:20;;;;;;;5.63;2.10;;;24.00;44.70;;;;;;5069739;28;20499;-67
2023/05/04 09:39:57;;;;;;;4.07;1.95;;;24.00;44.30;;;;;;5068355;28;20037;-68
2023/05/04 09:42:25;;;;;;;5.97;2.72;;;24.10;44.80;;;;;;5067244;28;20044;-67
2023/05/04 09:45:02;;;;;;;4.32;1.77;;;24.10;44.90;;;;;;5068721;28;20041;-68
2023/05/04 09:47:36;;;;;;;1.77;1.67;;;24.00;50.50;;;;;;5069646;28;20036;-68
2023/05/04 09:50:20;;;;;;;2.60;1.73;;;24.10;50.40;;;;;;5068189;28;20032;-68
2023/05/04 09:52:48;;;;;;;5.45;1.80;;;24.00;50.30;;;;;;5088806;28;20380;-68
2023/05/04 09:55:16;;;;;;;1.85;1.60;;;24.20;50.50;;;;;;5061457;28;20040;-68
2023/05/04 09:57:44;;;;;;;5.13;1.75;;;24.20;50.40;;;;;;5051178;28;20053;-71
2023/05/04 10:00:14;;;;;;;4.47;1.90;;;24.00;50.40;;;;;;5072932;28;20041;-71
2023/05/04 10:02:42;;;;;;;4.95;2.58;;;24.10;51.80;;;;;;5067065;28;20049;-70
2023/05/04 10:05:09;;;;;;;6.78;3.28;;;24.30;51.60;;;;;;5090608;28;20380;-70
2023/05/04 10:07:37;;;;;;;3.58;2.20;;;24.40;48.60;;;;;;5088085;28;20101;-69
2023/05/04 10:10:04;;;;;;;3.08;2.53;;;24.30;45.60;;;;;;5087557;28;20028;-69
2023/05/04 10:12:31;;;;;;;3.05;2.60;;;24.30;45.30;;;;;;5110297;28;20034;-67
2023/05/04 10:14:57;;;;;;;6.45;2.53;;;24.10;45.10;;;;;;5102037;28;20027;-68
2023/05/04 10:17:41;;;;;;;4.13;2.55;;;24.00;44.40;;;;;;5093513;28;20028;-68
2023/05/04 10:20:28;;;;;;;3.80;2.67;;;24.00;44.40;;;;;;5107828;28;20503;-68
2023/05/04 10:23:42;;;;;;;6.95;2.55;;;24.30;45.00;;;;;;5110177;28;20405;-68
2023/05/04 10:26:26;;;;;;;;;;;24.20;44.30;;;;;;5094835;28;20058;-67
2023/05/04 10:29:01;;;;;;;5.60;2.42;;;24.10;44.50;;;;;;5107099;28;19919;-68
2023/05/04 10:31:37;;;;;;;5.75;2.97;;;24.10;44.90;;;;;;5083415;28;20031;-69
2023/05/04 10:34:04;;;;;;;6.45;2.20;;;24.20;45.20;;;;;;5078627;28;20035;-67
2023/05/04 10:36:38;;;;;;;3.33;2.65;;;24.30;45.80;;;;;;5090526;28;20034;-66
2023/05/04 10:39:16;;;;;;;3.25;2.40;;;24.40;46.00;;;;;;5098141;28;20101;-69
2023/05/04 10:41:55;;;;;;;3.88;2.33;;;24.20;45.90;;;;;;5098148;28;20070;-69
2023/05/04 10:44:22;;;;;;;2.78;2.03;;;24.30;48.40;;;;;;5108810;28;20027;-68
2023/05/04 10:47:00;;;;;;;4.95;2.67;;;24.50;45.50;;;;;;5102337;28;20028;-67
2023/05/04 10:49:26;;;;;;;5.00;2.67;;;24.70;46.30;;;;;;5094432;28;20035;-68
2023/05/04 10:52:14;;;;;;;5.95;2.58;;;24.50;46.20;;;;;;5089767;28;20039;-67
2023/05/04 10:54:42;;;;;;;7.65;3.40;;;24.50;45.80;;;;;;5085661;28;20027;-69
2023/05/04 10:57:11;;;;;;;3.13;2.17;;;24.60;56.00;;;;;;5088079;28;20028;-68
2023/05/04 10:59:39;;;;;;;4.05;2.17;;;24.70;57.70;;;;;;5094490;28;20041;-69
2023/05/04 11:02:06;;;;;;;8.00;3.92;;;24.70;58.70;;;;;;5104188;28;20028;-70
2023/05/04 11:04:33;;;;;;;4.85;2.75;;;25.00;59.00;;;;;;5090471;28;20054;-69
2023/05/04 11:07:01;;;;;;;4.47;3.00;;;25.00;58.30;;;;;;5089873;28;20043;-69
2023/05/04 11:09:34;;;;;;;2.22;1.98;;;25.00;58.40;;;;;;5089961;28;20035;-69
2023/05/04 11:12:01;;;;;;;1.92;1.60;;;25.00;55.60;;;;;;5103772;28;20028;-68
2023/05/04 11:14:28;;;;;;;5.75;2.10;;;25.10;53.30;;;;;;5100966;28;20054;-69
2023/05/04 11:17:07;;;;;;;3.58;2.42;;;25.00;53.00;;;;;;5102650;28;20116;-68
2023/05/04 11:19:33;;;;;;;2.45;2.13;;;25.00;52.80;;;;;;5097208;28;20074;-69
2023/05/04 11:22:01;;;;;;;2.35;1.80;;;25.00;53.00;;;;;;5094160;28;20036;-69
2023/05/04 11:24:44;;;;;;;5.72;2.03;;;25.00;53.10;;;;;;5086826;28;20110;-69
2023/05/04 11:27:40;;;;;;;2.30;2.03;;;24.90;52.80;;;;;;5086365;28;20111;-67
2023/05/04 11:30:08;;;;;;;4.90;2.08;;;24.90;53.00;;;;;;5074662;28;20082;-68
2023/05/04 11:32:42;;;;;;;3.90;2.10;;;24.80;52.70;;;;;;5080117;28;20365;-68
2023/05/04 11:35:18;;;;;;;2.22;1.45;;;24.70;52.30;;;;;;5069822;28;20549;-66
2023/05/04 11:37:46;;;;;;;1.95;1.50;;;24.90;52.90;;;;;;5069630;28;20058;-68
2023/05/04 11:40:18;;;;;;;4.05;2.88;;;24.80;51.90;;;;;;5065706;28;20067;-67
2023/05/04 11:42:45;;;;;;;1.80;1.70;;;24.80;52.50;;;;;;5066056;28;20433;-68
2023/05/04 11:45:20;;;;;;;4.47;2.13;;;24.90;52.40;;;;;;5067178;28;20123;-69
2023/05/04 11:47:47;;;;;;;3.13;1.95;;;24.80;52.00;;;;;;5070379;28;20044;-70
2023/05/04 11:50:15;;;;;;;6.07;2.33;;;24.90;51.80;;;;;;5065382;28;20039;-69
2023/05/04 11:52:42;;;;;;;3.05;2.25;;;24.90;51.20;;;;;;5071780;28;20032;-68
2023/05/04 11:55:25;;;;;;;3.17;2.05;;;24.70;50.60;;;;;;5056273;28;20028;-67
2023/05/04 11:58:02;;;;;;;3.42;1.98;;;24.80;45.10;;;;;;5068839;28;20415;-68
2023/05/04 12:00:45;;;;;;;5.47;2.28;;;24.60;48.40;;;;;;5070117;28;20055;-67
2023/05/04 12:03:12;;;;;;;5.47;2.05;;;24.70;49.00;;;;;;5071177;28;20820;-65
2023/05/04 12:05:45;;;;;;;6.90;2.15;;;24.70;48.80;;;;;;5072236;28;20503;-67
2023/05/04 12:08:20;;;;;;;;;;;24.70;48.50;;;;;;5084053;28;20040;-68
2023/05/04 12:10:47;;;;;;;3.10;1.55;;;24.70;48.40;;;;;;5071323;28;20365;-67
2023/05/04 12:13:16;;;;;;;2.90;1.85;;;24.60;48.20;;;;;;5070497;28;20392;-67
2023/05/04 12:15:42;;;;;;;4.40;2.00;;;24.60;48.00;;;;;;5068769;28;20531;-67
2023/05/04 12:18:28;;;;;;;2.10;1.92;;;24.50;48.10;;;;;;5087927;28;20087;-67
2023/05/04 12:20:54;;;;;;;3.20;2.30;;;24.50;46.40;;;;;;5054576;28;20045;-69
2023/05/04 12:23:20;;;;;;;2.10;1.70;;;24.40;47.60;;;;;;5069415;28;20081;-66
2023/05/04 12:25:46;;;;;;;3.00;1.80;;;24.40;47.70;;;;;;5070890;28;20055;-69
2023/05/04 12:28:12;;;;;;;4.30;2.60;;;24.50;47.70;;;;;;5079106;28;20032;-68
2023/05/04 12:30:38;;;;;;;5.80;2.20;;;24.40;47.70;;;;;;5073664;28;20028;-68
2023/05/04 12:33:04;;;;;;;5.70;2.15;;;24.30;47.60;;;;;;5074638;28;20044;-67
2023/05/04 12:35:30;;;;;;;4.18;1.83;;;24.30;47.60;;;;;;5084932;28;20483;-68
2023/05/04 12:37:56;;;;;;;2.28;2.05;;;24.40;47.40;;;;;;5079163;28;20032;-68
2023/05/04 12:40:22;;;;;;;2.20;1.63;;;24.30;46.60;;;;;;5067823;28;20730;-68
2023/05/04 12:42:48;;;;;;;2.53;1.77;;;24.20;44.40;;;;;;5068955;28;20036;-69
2023/05/04 12:45:15;;;;;;;4.60;2.15;;;24.30;47.00;;;;;;5086957;28;20130;-70
2023/05/04 12:47:41;;;;;;;3.30;1.77;;;24.30;47.00;;;;;;5112536;28;20054;-69
2023/05/04 12:50:07;;;;;;;2.00;1.80;;;24.30;46.50;;;;;;5113961;28;20475;-69
2023/05/04 12:52:33;;;;;;;2.63;2.33;;;24.30;46.80;;;;;;5090742;28;20043;-69